Time;durP1;ratioP1;P1;durP2;ratioP2;P2;SDS_P1;SDS_P2;PMS_P1;PMS_P2;Temp;Humidity;BMP_temperature;BMP_pressure;BME280_temperature;BME280_humidity;BME280_pressure;Samples;Min_cycle;Max_cycle;Signal;HPM_P1;HPM_P2
2022/05/31 00:01:55;;;;;;;2.72;1.73;;;;;;;;;;5053271;28;20040;-68
2022/05/31 00:04:21;;;;;;;3.10;1.80;;;;;;;;;;5053308;28;20021;-68
2022/05/31 00:06:46;;;;;;;3.08;1.67;;;;;;;;;;5053253;28;20033;-67
2022/05/31 00:09:13;;;;;;;3.90;2.10;;;;;;;;;;5053253;28;20061;-67
2022/05/31 00:11:41;;;;;;;2.70;1.85;;;;;;;;;;5053211;28;20390;-68
2022/05/31 00:14:07;;;;;;;4.45;2.00;;;;;;;;;;5052874;28;20021;-67
2022/05/31 00:16:34;;;;;;;5.10;2.00;;;;;;;;;;5053007;28;20104;-68
2022/05/31 00:18:59;;;;;;;2.95;1.70;;;;;;;;;;5052840;28;20485;-68
2022/05/31 00:21:39;;;;;;;6.07;2.17;;;;;;;;;;5052835;28;20037;-67
2022/05/31 00:24:08;;;;;;;2.63;1.80;;;;;;;;;;5053223;28;20029;-68
2022/05/31 00:26:33;;;;;;;3.20;1.77;;;;;;;;;;5052770;28;20037;-67
2022/05/31 00:28:59;;;;;;;3.92;1.80;;;;;;;;;;5052625;28;20364;-68
2022/05/31 00:31:24;;;;;;;3.42;1.67;;;;;;;;;;5052902;28;20352;-67
2022/05/31 00:33:50;;;;;;;3.10;1.75;;;;;;;;;;5052903;28;20029;-68
2022/05/31 00:36:16;;;;;;;4.22;2.00;;;;;;;;;;5052972;28;20032;-67
2022/05/31 00:38:42;;;;;;;4.50;2.10;;;;;;;;;;5051444;28;20112;-67
2022/05/31 00:41:34;;;;;;;3.63;2.10;;;;;;;;;;5052768;28;20116;-68
2022/05/31 00:44:03;;;;;;;4.63;1.92;;;;;;;;;;5052298;28;20044;-68
2022/05/31 00:46:34;;;;;;;2.60;1.70;;;;;;;;;;5052650;28;20058;-68
2022/05/31 00:49:05;;;;;;;3.53;2.15;;;;;;;;;;5052597;28;20382;-68
2022/05/31 00:51:40;;;;;;;2.88;1.90;;;;;;;;;;5052615;28;20032;-67
2022/05/31 00:54:12;;;;;;;2.70;1.80;;;;;;;;;;5052729;28;20041;-68
2022/05/31 00:56:37;;;;;;;3.20;2.10;;;;;;;;;;5051238;28;20103;-67
2022/05/31 00:59:12;;;;;;;3.45;1.95;;;;;;;;;;5052490;28;20521;-68
2022/05/31 01:01:41;;;;;;;2.85;2.05;;;;;;;;;;5052687;28;20036;-67
2022/05/31 01:04:10;;;;;;;3.90;1.98;;;;;;;;;;5052777;28;20433;-69
2022/05/31 01:06:36;;;;;;;2.92;1.92;;;;;;;;;;5052479;28;20142;-69
2022/05/31 01:09:03;;;;;;;3.47;2.10;;;;;;;;;;5052480;28;20160;-69
2022/05/31 01:11:32;;;;;;;2.17;1.70;;;;;;;;;;5052333;28;20017;-69
2022/05/31 01:13:58;;;;;;;2.00;1.50;;;;;;;;;;5052423;28;20367;-70
2022/05/31 01:16:24;;;;;;;5.32;1.67;;;;;;;;;;5052361;28;20024;-69
2022/05/31 01:18:50;;;;;;;3.33;1.80;;;;;;;;;;5052047;28;20032;-69
2022/05/31 01:21:16;;;;;;;2.95;1.90;;;;;;;;;;5052442;28;20050;-69
2022/05/31 01:23:48;;;;;;;2.65;1.85;;;;;;;;;;5052356;28;20410;-67
2022/05/31 01:26:27;;;;;;;2.90;1.75;;;;;;;;;;5054210;28;20044;-69
2022/05/31 01:29:04;;;;;;;3.30;2.00;;;;;;;;;;5055079;28;20036;-69
2022/05/31 01:31:37;;;;;;;3.10;1.95;;;;;;;;;;5056346;28;20475;-69
2022/05/31 01:34:38;;;;;;;3.38;1.90;;;;;;;;;;5056356;28;20033;-67
2022/05/31 01:37:04;;;;;;;4.13;2.00;;;;;;;;;;5052094;28;20094;-66
2022/05/31 01:39:34;;;;;;;4.53;1.90;;;;;;;;;;5056040;28;20029;-65
2022/05/31 01:42:11;;;;;;;4.20;2.45;;;;;;;;;;5055846;28;20021;-67
2022/05/31 01:44:41;;;;;;;2.40;1.80;;;;;;;;;;5056079;28;20029;-67
2022/05/31 01:47:07;;;;;;;3.28;1.88;;;;;;;;;;5055976;28;20398;-65
2022/05/31 01:49:40;;;;;;;2.58;1.90;;;;;;;;;;5055915;28;20037;-65
2022/05/31 01:52:07;;;;;;;4.10;1.80;;;;;;;;;;5055914;28;20033;-65
2022/05/31 01:54:34;;;;;;;5.63;2.10;;;;;;;;;;5055630;28;20056;-70
2022/05/31 01:57:04;;;;;;;5.15;2.08;;;;;;;;;;5055786;28;20118;-65
2022/05/31 01:59:37;;;;;;;2.80;1.88;;;;;;;;;;5055681;28;20112;-66
2022/05/31 02:02:05;;;;;;;2.90;1.65;;;;;;;;;;5055668;28;20102;-65
2022/05/31 02:04:31;;;;;;;2.67;1.75;;;;;;;;;;5054389;28;20033;-66
2022/05/31 02:07:15;;;;;;;2.80;1.70;;;;;;;;;;5055535;28;20087;-65
2022/05/31 02:09:42;;;;;;;2.72;1.70;;;;;;;;;;5055319;28;20462;-66
2022/05/31 02:12:10;;;;;;;3.58;1.85;;;;;;;;;;5055638;28;20017;-65
2022/05/31 02:14:36;;;;;;;4.80;1.90;;;;;;;;;;5055340;28;20029;-64
2022/05/31 02:17:02;;;;;;;4.15;1.60;;;;;;;;;;5055405;28;20032;-64
2022/05/31 02:19:28;;;;;;;3.50;1.95;;;;;;;;;;5054978;28;20035;-65
2022/05/31 02:21:56;;;;;;;3.60;1.80;;;;;;;;;;5054988;28;20494;-67
2022/05/31 02:24:23;;;;;;;3.20;1.70;;;;;;;;;;5054909;28;20462;-67
2022/05/31 02:26:49;;;;;;;3.70;1.75;;;;;;;;;;5055103;28;20037;-67
2022/05/31 02:29:18;;;;;;;5.70;1.88;;;;;;;;;;5055109;28;20021;-67
2022/05/31 02:31:45;;;;;;;3.25;1.98;;;;;;;;;;5055163;28;20036;-67
2022/05/31 02:34:12;;;;;;;4.95;1.90;;;;;;;;;;5055175;28;20490;-68
2022/05/31 02:36:38;;;;;;;5.28;2.58;;;;;;;;;;5054225;28;20029;-67
2022/05/31 02:39:04;;;;;;;5.63;1.98;;;;;;;;;;5054218;28;20025;-68
2022/05/31 02:41:31;;;;;;;3.17;2.08;;;;;;;;;;5054945;28;20370;-67
2022/05/31 02:43:57;;;;;;;2.80;1.80;;;;;;;;;;5054712;28;20033;-68
2022/05/31 02:46:23;;;;;;;2.97;1.80;;;;;;;;;;5054850;28;20054;-67
2022/05/31 02:48:49;;;;;;;5.18;1.95;;;;;;;;;;5054648;28;20079;-67
2022/05/31 02:51:15;;;;;;;6.55;2.38;;;;;;;;;;5054656;28;20021;-67
2022/05/31 02:53:40;;;;;;;2.50;1.75;;;;;;;;;;5054359;28;20028;-67
2022/05/31 02:56:07;;;;;;;5.55;2.03;;;;;;;;;;5054636;28;20117;-67
2022/05/31 02:58:32;;;;;;;2.88;1.90;;;;;;;;;;5054263;28;20501;-67
2022/05/31 03:00:58;;;;;;;4.38;1.83;;;;;;;;;;5054531;28;20037;-67
2022/05/31 03:03:23;;;;;;;3.47;1.70;;;;;;;;;;5054480;28;20025;-67
2022/05/31 03:05:50;;;;;;;3.72;2.20;;;;;;;;;;5054433;28;20363;-64
2022/05/31 03:08:16;;;;;;;3.03;1.90;;;;;;;;;;5054148;28;20367;-66
2022/05/31 03:10:50;;;;;;;3.17;2.10;;;;;;;;;;5054305;28;20054;-65
2022/05/31 03:13:22;;;;;;;2.70;2.03;;;;;;;;;;5054323;28;20025;-65
2022/05/31 03:15:48;;;;;;;4.90;2.13;;;;;;;;;;5054219;28;20032;-65
2022/05/31 03:18:18;;;;;;;3.13;1.98;;;;;;;;;;5054023;28;20036;-67
2022/05/31 03:20:48;;;;;;;3.90;1.90;;;;;;;;;;5052914;28;20352;-67
2022/05/31 03:23:15;;;;;;;3.55;1.98;;;;;;;;;;5053868;28;20053;-66
2022/05/31 03:25:42;;;;;;;4.88;2.65;;;;;;;;;;5054155;28;20500;-68
2022/05/31 03:28:10;;;;;;;3.88;2.05;;;;;;;;;;5053985;28;20032;-68
2022/05/31 03:30:36;;;;;;;4.57;2.15;;;;;;;;;;5053996;28;20021;-68
2022/05/31 03:33:03;;;;;;;3.88;2.47;;;;;;;;;;5053941;28;20033;-68
2022/05/31 03:35:29;;;;;;;3.75;2.00;;;;;;;;;;5052636;28;20032;-67
2022/05/31 03:37:55;;;;;;;7.55;2.60;;;;;;;;;;5053566;28;20035;-68
2022/05/31 03:43:05;;;;;;;4.97;2.70;;;;;;;;;;5053646;28;20079;-68
2022/05/31 03:45:35;;;;;;;5.40;2.80;;;;;;;;;;5053752;28;20036;-68
2022/05/31 03:48:01;;;;;;;9.27;3.15;;;;;;;;;;5053377;28;20028;-69
2022/05/31 03:50:27;;;;;;;7.55;2.80;;;;;;;;;;5053487;28;20108;-68
2022/05/31 03:52:52;;;;;;;6.22;2.20;;;;;;;;;;5053677;28;20451;-68
2022/05/31 03:55:18;;;;;;;10.63;3.20;;;;;;;;;;5053508;28;20098;-68
2022/05/31 03:57:46;;;;;;;5.32;2.50;;;;;;;;;;5053195;28;20025;-68
2022/05/31 04:00:12;;;;;;;5.60;2.58;;;;;;;;;;5053334;28;20024;-68
2022/05/31 04:02:37;;;;;;;6.05;2.80;;;;;;;;;;5053427;28;20028;-68
2022/05/31 04:05:03;;;;;;;9.20;3.10;;;;;;;;;;5053137;28;20021;-68
2022/05/31 04:07:29;;;;;;;4.03;2.72;;;;;;;;;;5053292;28;20027;-68
2022/05/31 04:09:54;;;;;;;8.60;3.33;;;;;;;;;;5053154;28;20033;-68
2022/05/31 04:12:20;;;;;;;4.88;2.60;;;;;;;;;;5052996;28;20029;-68
2022/05/31 04:14:45;;;;;;;5.47;3.10;;;;;;;;;;5052991;28;20115;-68
2022/05/31 04:17:11;;;;;;;5.72;3.00;;;;;;;;;;5052979;28;20039;-67
2022/05/31 04:19:36;;;;;;;4.80;2.83;;;;;;;;;;5052498;28;20114;-68
2022/05/31 04:22:02;;;;;;;5.47;3.10;;;;;;;;;;5053080;28;20139;-68
2022/05/31 04:24:27;;;;;;;5.90;2.70;;;;;;;;;;5053143;28;20036;-68
2022/05/31 04:26:55;;;;;;;4.50;2.80;;;;;;;;;;5052802;28;20490;-68
2022/05/31 04:29:21;;;;;;;6.25;3.47;;;;;;;;;;5052874;28;20021;-68
2022/05/31 04:31:48;;;;;;;7.07;3.13;;;;;;;;;;5052933;28;20112;-68
2022/05/31 04:34:14;;;;;;;5.22;3.00;;;;;;;;;;5052777;28;20025;-68
2022/05/31 04:36:39;;;;;;;6.82;3.38;;;;;;;;;;5052830;28;20033;-68
2022/05/31 04:39:05;;;;;;;6.57;3.45;;;;;;;;;;5052703;28;20044;-68
2022/05/31 04:41:31;;;;;;;11.63;4.32;;;;;;;;;;5052785;28;20036;-68
2022/05/31 04:43:59;;;;;;;5.47;3.50;;;;;;;;;;5052772;28;20033;-68
2022/05/31 04:46:29;;;;;;;4.43;3.03;;;;;;;;;;5052696;28;20098;-66
2022/05/31 04:48:56;;;;;;;5.43;3.38;;;;;;;;;;5052492;28;20053;-68
2022/05/31 04:51:22;;;;;;;4.82;3.00;;;;;;;;;;5052556;28;20044;-68
2022/05/31 04:53:48;;;;;;;6.70;3.22;;;;;;;;;;5052651;28;20359;-67
2022/05/31 04:56:19;;;;;;;6.95;3.10;;;;;;;;;;5051284;28;20146;-68
2022/05/31 04:58:50;;;;;;;5.60;3.17;;;;;;;;;;5052534;28;20126;-68
2022/05/31 05:01:16;;;;;;;8.18;3.25;;;;;;;;;;5051693;28;20478;-65
2022/05/31 05:03:43;;;;;;;6.82;3.67;;;;;;;;;;5052214;28;20029;-68
2022/05/31 05:06:11;;;;;;;5.00;3.25;;;;;;;;;;5052514;28;20025;-68
2022/05/31 05:08:37;;;;;;;7.03;3.50;;;;;;;;;;5052395;28;20033;-68
2022/05/31 05:11:04;;;;;;;6.88;3.53;;;;;;;;;;5052193;28;20501;-68
2022/05/31 05:13:31;;;;;;;4.68;2.97;;;;;;;;;;5052413;28;20048;-67
2022/05/31 05:15:59;;;;;;;5.28;3.00;;;;;;;;;;5052313;28;20419;-68
2022/05/31 05:18:25;;;;;;;4.82;3.40;;;;;;;;;;5051684;28;20105;-66
2022/05/31 05:20:51;;;;;;;6.78;3.60;;;;;;;;;;5052287;28;20086;-68
2022/05/31 05:23:17;;;;;;;4.47;3.00;;;;;;;;;;5052241;28;20045;-68
2022/05/31 05:25:50;;;;;;;6.25;3.40;;;;;;;;;;5052218;28;20445;-68
2022/05/31 05:31:01;;;;;;;6.47;3.08;;;;;;;;;;5052222;28;20083;-68
2022/05/31 05:33:27;;;;;;;7.88;3.10;;;;;;;;;;5052061;28;20029;-69
2022/05/31 05:35:53;;;;;;;4.72;3.13;;;;;;;;;;5052252;28;20478;-66
2022/05/31 05:38:18;;;;;;;7.10;3.85;;;;;;;;;;5052197;28;20025;-67
2022/05/31 05:40:44;;;;;;;4.05;3.35;;;;;;;;;;5052125;28;20032;-66
2022/05/31 05:43:10;;;;;;;5.82;3.03;;;;;;;;;;5052219;28;20095;-67
2022/05/31 05:45:36;;;;;;;5.95;3.38;;;;;;;;;;5051849;28;20025;-66
2022/05/31 05:48:03;;;;;;;4.55;2.90;;;;;;;;;;5051927;28;20162;-66
2022/05/31 05:50:29;;;;;;;5.68;3.05;;;;;;;;;;5052038;28;20025;-69
2022/05/31 05:53:02;;;;;;;6.00;3.40;;;;;;;;;;5051970;28;20029;-69
2022/05/31 05:55:28;;;;;;;5.43;3.58;;;;;;;;;;5052095;28;20074;-69
2022/05/31 05:57:54;;;;;;;8.57;3.60;;;;;;;;;;5051746;28;20104;-68
2022/05/31 06:00:24;;;;;;;6.05;3.45;;;;;;;;;;5051580;28;20021;-68
2022/05/31 06:03:20;;;;;;;5.50;3.57;;;;;;;;;;5051795;28;20029;-68
2022/05/31 06:05:47;;;;;;;5.47;3.83;;;;;;;;;;5048663;28;20490;-68
2022/05/31 06:08:20;;;;;;;8.00;3.80;;;;;;;;;;5051623;28;20036;-68
2022/05/31 06:11:13;;;;;;;6.15;3.83;;;;;;;;;;5051723;28;20470;-69
2022/05/31 06:13:45;;;;;;;7.65;3.65;;;;;;;;;;5052451;28;20130;-69
2022/05/31 06:16:11;;;;;;;8.57;4.00;;;;;;;;;;5054911;28;20150;-68
2022/05/31 06:18:44;;;;;;;7.03;4.15;;;;;;;;;;5054779;28;20462;-69
2022/05/31 06:21:11;;;;;;;6.72;4.03;;;;;;;;;;5055454;28;20538;-68
2022/05/31 06:23:38;;;;;;;8.40;3.90;;;;;;;;;;5055193;28;20072;-68
2022/05/31 06:26:03;;;;;;;13.80;3.90;;;;;;;;;;5055123;28;20048;-69
2022/05/31 06:28:29;;;;;;;9.32;3.92;;;;;;;;;;5053871;28;20025;-68
2022/05/31 06:30:54;;;;;;;7.88;3.35;;;;;;;;;;5053490;28;20064;-68
2022/05/31 06:33:20;;;;;;;7.18;3.47;;;;;;;;;;5055059;28;20116;-68
2022/05/31 06:35:45;;;;;;;8.15;3.85;;;;;;;;;;5055120;28;20108;-67
2022/05/31 06:38:11;;;;;;;7.50;3.80;;;;;;;;;;5055055;28;20036;-66
2022/05/31 06:40:42;;;;;;;6.82;3.50;;;;;;;;;;5054839;28;20072;-65
2022/05/31 06:43:07;;;;;;;7.38;4.10;;;;;;;;;;5054810;28;20069;-66
2022/05/31 06:45:33;;;;;;;5.40;3.58;;;;;;;;;;5054633;28;20044;-69
2022/05/31 06:47:59;;;;;;;5.55;3.40;;;;;;;;;;5054826;28;20037;-68
2022/05/31 06:50:24;;;;;;;7.88;4.00;;;;;;;;;;5054745;28;20025;-69
2022/05/31 06:58:18;;;;;;;9.45;5.00;;;;;;;;;;5054685;28;20390;-68
2022/05/31 07:00:43;;;;;;;14.45;6.18;;;;;;;;;;5054392;28;20104;-69
2022/05/31 07:03:09;;;;;;;9.48;5.80;;;;;;;;;;5054507;28;20025;-68
2022/05/31 07:05:35;;;;;;;5.97;3.70;;;;;;;;;;5054363;28;20033;-69
2022/05/31 07:08:00;;;;;;;5.50;3.60;;;;;;;;;;5053117;28;20027;-69
2022/05/31 07:10:26;;;;;;;9.05;3.85;;;;;;;;;;5053958;28;20346;-69
2022/05/31 07:12:51;;;;;;;4.75;3.13;;;;;;;;;;5054309;28;20025;-68
2022/05/31 07:15:17;;;;;;;8.57;3.38;;;;;;;;;;5054102;28;20390;-68
2022/05/31 07:17:44;;;;;;;10.50;3.40;;;;;;;;;;5053787;28;20497;-68
2022/05/31 07:20:10;;;;;;;6.65;3.00;;;;;;;;;;5053963;28;20555;-69
2022/05/31 07:22:37;;;;;;;4.20;2.33;;;;;;;;;;5053507;28;20057;-69
2022/05/31 07:25:03;;;;;;;6.00;2.80;;;;;;;;;;5053333;28;20028;-69
2022/05/31 07:27:29;;;;;;;3.90;2.65;;;;;;;;;;5053158;28;20025;-68
2022/05/31 07:29:54;;;;;;;7.68;3.03;;;;;;;;;;5049755;28;20440;-69
2022/05/31 07:32:20;;;;;;;7.65;2.63;;;;;;;;;;5048244;28;20095;-68
2022/05/31 07:34:46;;;;;;;4.63;2.88;;;;;;;;;;5039182;28;20447;-68
2022/05/31 07:37:12;;;;;;;4.30;2.22;;;;;;;;;;5052670;28;20032;-69
2022/05/31 07:39:38;;;;;;;5.45;2.35;;;;;;;;;;5053430;28;20031;-68
2022/05/31 07:42:04;;;;;;;7.47;2.58;;;;;;;;;;5053305;28;20103;-68
2022/05/31 07:44:30;;;;;;;4.10;1.90;;;;;;;;;;5052851;28;20025;-67
2022/05/31 07:46:56;;;;;;;2.60;1.80;;;;;;;;;;5051836;28;20037;-68
2022/05/31 07:49:22;;;;;;;6.57;2.20;;;;;;;;;;5053099;28;20025;-67
2022/05/31 07:51:48;;;;;;;4.07;1.95;;;;;;;;;;5053044;28;20058;-68
2022/05/31 07:54:13;;;;;;;3.67;2.00;;;;;;;;;;5053280;28;20029;-68
2022/05/31 07:56:39;;;;;;;7.30;2.40;;;;;;;;;;5053170;28;20040;-68
2022/05/31 07:59:05;;;;;;;4.43;1.60;;;;;;;;;;5052949;28;20032;-68
2022/05/31 08:01:31;;;;;;;4.22;1.60;;;;;;;;;;5053215;28;20100;-68
2022/05/31 08:03:57;;;;;;;2.92;1.67;;;;;;;;;;5053177;28;20615;-68
2022/05/31 08:06:28;;;;;;;6.90;2.38;;;;;;;;;;5052765;28;20386;-69
2022/05/31 08:08:54;;;;;;;2.90;1.35;;;;;;;;;;5053172;28;20450;-67
2022/05/31 08:11:23;;;;;;;2.80;1.70;;;;;;;;;;5052597;28;20104;-67
2022/05/31 08:13:49;;;;;;;7.03;2.08;;;;;;;;;;5052868;28;20027;-68
2022/05/31 08:16:17;;;;;;;2.30;1.60;;;;;;;;;;5052616;28;20540;-68
2022/05/31 08:18:44;;;;;;;3.13;1.35;;;;;;;;;;5052413;28;20021;-65
2022/05/31 08:21:12;;;;;;;2.80;1.50;;;;;;;;;;5053278;28;20056;-65
2022/05/31 08:23:38;;;;;;;2.17;1.20;;;;;;;;;;5072522;28;20050;-64
2022/05/31 08:26:04;;;;;;;3.75;1.70;;;;;;;;;;5072390;28;20103;-65
2022/05/31 08:28:31;;;;;;;3.67;1.65;;;;;;;;;;5072215;28;20025;-64
2022/05/31 08:31:00;;;;;;;4.88;1.70;;;;;;;;;;5072611;28;20033;-66
2022/05/31 08:33:27;;;;;;;3.35;1.45;;;;;;;;;;5072482;28;20104;-63
2022/05/31 08:35:53;;;;;;;2.70;1.35;;;;;;;;;;5072373;28;20423;-63
2022/05/31 08:38:19;;;;;;;2.80;1.42;;;;;;;;;;5072313;28;20029;-63
2022/05/31 08:41:10;;;;;;;3.03;1.38;;;;;;;;;;5072142;28;20039;-66
2022/05/31 08:43:45;;;;;;;4.07;1.55;;;;;;;;;;5066656;28;20040;-65
2022/05/31 08:46:23;;;;;;;2.83;1.70;;;;;;;;;;5072319;28;20029;-64
2022/05/31 08:49:11;;;;;;;5.80;1.90;;;;;;;;;;5072363;28;20081;-65
2022/05/31 08:52:04;;;;;;;4.03;1.63;;;;;;;;;;5072318;28;20070;-65
2022/05/31 08:57:54;;;;;;;4.82;1.50;;;;;;;;;;5072477;28;20121;-64
2022/05/31 09:00:30;;;;;;;3.42;1.50;;;;;;;;;;5072104;28;20025;-64
2022/05/31 09:03:01;;;;;;;3.30;1.50;;;;;;;;;;5072379;28;20028;-66
2022/05/31 09:05:29;;;;;;;4.80;1.55;;;;;;;;;;5072041;28;20035;-63
2022/05/31 09:08:17;;;;;;;3.55;1.30;;;;;;;;;;5072318;28;20414;-64
2022/05/31 09:10:51;;;;;;;3.97;1.40;;;;;;;;;;5054302;28;20163;-64
2022/05/31 09:13:28;;;;;;;2.55;1.40;;;;;;;;;;5037203;28;20395;-65
2022/05/31 09:16:17;;;;;;;3.13;1.20;;;;;;;;;;5032123;28;20546;-64
2022/05/31 09:18:51;;;;;;;3.05;1.15;;;;;;;;;;5044063;28;20064;-64
2022/05/31 09:21:40;;;;;;;1.73;1.20;;;;;;;;;;5052138;28;20443;-65
2022/05/31 09:24:12;;;;;;;5.95;1.45;;;;;;;;;;5051934;28;20049;-64
2022/05/31 09:26:56;;;;;;;2.70;1.30;;;;;;;;;;5051525;28;20029;-66
2022/05/31 09:29:27;;;;;;;3.33;1.20;;;;;;;;;;5052230;28;20480;-66
2022/05/31 09:32:20;;;;;;;2.45;1.13;;;;;;;;;;5052181;28;20019;-66
2022/05/31 09:35:04;;;;;;;4.05;1.20;;;;;;;;;;5052197;28;20123;-64
2022/05/31 09:37:48;;;;;;;3.03;1.13;;;;;;;;;;5051676;28;20032;-64
2022/05/31 09:40:36;;;;;;;3.47;1.30;;;;;;;;;;5051401;28;20037;-64
2022/05/31 09:43:16;;;;;;;5.53;1.42;;;;;;;;;;5051780;28;20164;-64
2022/05/31 09:45:53;;;;;;;2.20;1.02;;;;;;;;;;5051667;28;20036;-65
2022/05/31 09:48:18;;;;;;;2.00;0.90;;;;;;;;;;5055146;28;20029;-66
2022/05/31 09:50:44;;;;;;;7.63;1.38;;;;;;;;;;5055544;28;20027;-65
2022/05/31 09:58:39;;;;;;;4.82;1.00;;;;;;;;;;5054973;28;20036;-68
2022/05/31 10:01:22;;;;;;;2.85;1.00;;;;;;;;;;5055420;28;20027;-68
2022/05/31 10:03:54;;;;;;;1.42;0.73;;;;;;;;;;5055625;28;20063;-68
2022/05/31 10:06:24;;;;;;;1.75;0.93;;;;;;;;;;5055142;28;20068;-67
2022/05/31 10:08:52;;;;;;;4.60;1.00;;;;;;;;;;5054138;28;20091;-67
2022/05/31 10:11:31;;;;;;;1.27;0.75;;;;;;;;;;5054801;28;20082;-67
2022/05/31 10:14:03;;;;;;;2.45;0.98;;;;;;;;;;5054945;28;20036;-67
2022/05/31 10:16:33;;;;;;;2.45;0.90;;;;;;;;;;5054386;28;20024;-68
2022/05/31 10:19:04;;;;;;;2.40;1.20;;;;;;;;;;5043977;28;20029;-68
2022/05/31 10:21:40;;;;;;;3.72;1.00;;;;;;;;;;5054782;28;20025;-67
2022/05/31 10:24:19;;;;;;;2.75;1.15;;;;;;;;;;5052959;28;20493;-67
2022/05/31 10:27:05;;;;;;;2.63;0.90;;;;;;;;;;5054141;28;20079;-67
2022/05/31 10:29:40;;;;;;;1.45;1.10;;;;;;;;;;5051844;28;20029;-67
2022/05/31 10:32:26;;;;;;;1.58;1.00;;;;;;;;;;5053656;28;20432;-67
2022/05/31 10:35:15;;;;;;;2.95;1.10;;;;;;;;;;5034765;28;20025;-67
2022/05/31 10:37:57;;;;;;;1.75;0.73;;;;;;;;;;5034552;28;20021;-67
2022/05/31 10:40:44;;;;;;;3.47;1.02;;;;;;;;;;5034644;28;20039;-67
2022/05/31 10:43:40;;;;;;;1.60;1.00;;;;;;;;;;5030611;28;20040;-67
2022/05/31 10:46:33;;;;;;;1.80;0.85;;;;;;;;;;5029593;28;20053;-67
2022/05/31 10:49:22;;;;;;;3.03;0.80;;;;;;;;;;5031598;28;20057;-66
2022/05/31 10:52:25;;;;;;;1.90;0.90;;;;;;;;;;5034359;28;20029;-67
2022/05/31 10:55:24;;;;;;;3.65;1.00;;;;;;;;;;5034541;28;20025;-67
2022/05/31 10:58:05;;;;;;;1.90;1.10;;;;;;;;;;5045470;28;20479;-67
2022/05/31 11:00:49;;;;;;;2.75;0.85;;;;;;;;;;5052846;28;20477;-65
2022/05/31 11:03:28;;;;;;;4.13;0.90;;;;;;;;;;5054262;28;20108;-67
2022/05/31 11:06:24;;;;;;;2.92;0.80;;;;;;;;;;5053714;28;20032;-68
2022/05/31 11:12:09;;;;;;;2.35;0.70;;;;;;;;;;5054166;28;21056;-67
2022/05/31 11:14:40;;;;;;;4.25;0.90;;;;;;;;;;5053919;28;20032;-67
2022/05/31 11:17:21;;;;;;;5.57;0.95;;;;;;;;;;5053863;28;20082;-66
2022/05/31 11:20:28;;;;;;;3.25;1.05;;;;;;;;;;5048295;28;20025;-66
2022/05/31 11:23:00;;;;;;;1.20;0.70;;;;;;;;;;5052717;28;20044;-65
2022/05/31 11:25:53;;;;;;;1.15;0.88;;;;;;;;;;5053256;28;20134;-66
2022/05/31 11:28:59;;;;;;;1.33;0.73;;;;;;;;;;5051015;28;20069;-66
2022/05/31 11:31:41;;;;;;;1.38;0.70;;;;;;;;;;5052270;28;20031;-67
2022/05/31 11:34:24;;;;;;;1.58;0.80;;;;;;;;;;5052524;28;20364;-67
2022/05/31 11:37:27;;;;;;;2.15;1.20;;;;;;;;;;5052647;28;20430;-67
2022/05/31 11:40:04;;;;;;;2.28;0.80;;;;;;;;;;5052694;28;20028;-67
2022/05/31 11:43:03;;;;;;;2.70;1.10;;;;;;;;;;5052851;28;20021;-67
2022/05/31 11:46:00;;;;;;;3.95;1.00;;;;;;;;;;5052093;28;20044;-68
2022/05/31 11:48:26;;;;;;;1.33;0.70;;;;;;;;;;5051563;28;20044;-67
2022/05/31 11:50:51;;;;;;;3.58;1.00;;;;;;;;;;5052720;28;20021;-67
2022/05/31 11:54:07;;;;;;;2.30;0.85;;;;;;;;;;5053187;28;20519;-67
2022/05/31 11:56:58;;;;;;;2.75;1.00;;;;;;;;;;5045247;28;20193;-67
2022/05/31 11:59:38;;;;;;;3.13;1.10;;;;;;;;;;5053037;28;20082;-67
2022/05/31 12:02:34;;;;;;;6.07;1.30;;;;;;;;;;5052526;28;20406;-67
2022/05/31 12:05:43;;;;;;;1.77;0.93;;;;;;;;;;5052623;28;20024;-67
2022/05/31 12:08:34;;;;;;;3.90;1.17;;;;;;;;;;5030493;28;20140;-67
2022/05/31 12:11:08;;;;;;;2.33;0.90;;;;;;;;;;5030553;28;20037;-67
2022/05/31 12:13:40;;;;;;;1.55;0.88;;;;;;;;;;5030842;28;20026;-67
2022/05/31 12:16:06;;;;;;;1.85;0.73;;;;;;;;;;5030572;28;20494;-67
2022/05/31 12:18:43;;;;;;;3.03;1.00;;;;;;;;;;5029912;28;20440;-66
2022/05/31 12:21:18;;;;;;;4.50;0.90;;;;;;;;;;5025708;28;20026;-64
2022/05/31 12:23:54;;;;;;;4.35;0.90;;;;;;;;;;5010807;28;20057;-66
2022/05/31 12:27:01;;;;;;;5.35;1.35;;;;;;;;;;5010925;28;20088;-67
2022/05/31 12:29:51;;;;;;;3.65;0.82;;;;;;;;;;5001378;28;20100;-67
2022/05/31 12:32:29;;;;;;;;;;;;;;;;;;5030457;28;20029;-68
2022/05/31 12:34:56;;;;;;;1.83;0.90;;;;;;;;;;5030505;28;20250;-67
2022/05/31 12:37:22;;;;;;;4.07;1.13;;;;;;;;;;5030435;28;20112;-67
2022/05/31 12:39:50;;;;;;;1.92;0.82;;;;;;;;;;5030375;28;20083;-69
2022/05/31 12:42:25;;;;;;;2.17;0.90;;;;;;;;;;5043022;28;20041;-66
2022/05/31 12:45:13;;;;;;;2.60;0.95;;;;;;;;;;5052478;28;20100;-67
2022/05/31 12:47:40;;;;;;;4.28;0.90;;;;;;;;;;5052044;28;20025;-68
2022/05/31 12:50:09;;;;;;;4.47;0.90;;;;;;;;;;5052385;28;20057;-64
2022/05/31 12:55:36;;;;;;;;;;;;;;;;;;5052641;28;20037;-67
2022/05/31 13:00:52;;;;;;;6.55;1.23;;;;;;;;;;5033869;28;20451;-66
2022/05/31 13:03:49;;;;;;;3.70;1.20;;;;;;;;;;5051581;28;20037;-66
2022/05/31 13:06:15;;;;;;;2.60;0.90;;;;;;;;;;5029747;28;20068;-66
2022/05/31 13:08:52;;;;;;;2.65;1.10;;;;;;;;;;5029690;28;20069;-67
2022/05/31 13:20:23;;;;;;;2.70;0.90;;;;;;;;;;5030068;28;20492;-68
2022/05/31 13:23:07;;;;;;;1.92;0.80;;;;;;;;;;5032872;28;20072;-67
2022/05/31 13:26:03;;;;;;;2.50;1.00;;;;;;;;;;5033738;28;20065;-67
2022/05/31 13:28:41;;;;;;;2.17;1.10;;;;;;;;;;5033273;28;20052;-67
2022/05/31 13:31:12;;;;;;;1.92;1.00;;;;;;;;;;5033659;28;20032;-67
2022/05/31 13:33:38;;;;;;;3.13;0.90;;;;;;;;;;5033784;28;20026;-67
2022/05/31 13:36:13;;;;;;;1.65;0.82;;;;;;;;;;5033587;28;20052;-67
2022/05/31 13:38:43;;;;;;;3.60;1.00;;;;;;;;;;5033347;28;20246;-67
2022/05/31 13:41:14;;;;;;;2.30;1.00;;;;;;;;;;5033411;28;20153;-66
2022/05/31 13:43:50;;;;;;;1.90;0.98;;;;;;;;;;5035431;28;20030;-67
2022/05/31 13:46:41;;;;;;;2.42;1.30;;;;;;;;;;5035303;28;20034;-67
2022/05/31 13:49:31;;;;;;;2.72;1.23;;;;;;;;;;5035479;28;20112;-67
2022/05/31 13:52:04;;;;;;;2.47;1.02;;;;;;;;;;5035608;28;20025;-67
2022/05/31 13:54:40;;;;;;;3.38;1.02;;;;;;;;;;5034792;28;20041;-68
2022/05/31 13:57:06;;;;;;;1.83;0.88;;;;;;;;;;5039681;28;20028;-67
2022/05/31 13:59:54;;;;;;;1.20;0.90;;;;;;;;;;5054904;28;20109;-67
2022/05/31 14:02:26;;;;;;;3.83;1.02;;;;;;;;;;5055211;28;20033;-67
2022/05/31 14:05:03;;;;;;;3.83;1.10;;;;;;;;;;5054498;28;20029;-67
2022/05/31 14:07:34;;;;;;;4.25;1.15;;;;;;;;;;5054944;28;20087;-67
2022/05/31 14:10:01;;;;;;;3.03;0.90;;;;;;;;;;5055145;28;20129;-67
2022/05/31 14:12:31;;;;;;;4.38;2.25;;;;;;;;;;5054969;28;20075;-67
2022/05/31 14:14:59;;;;;;;2.35;1.00;;;;;;;;;;5054892;28;20021;-67
2022/05/31 14:17:41;;;;;;;2.28;1.02;;;;;;;;;;5054868;28;20434;-66
2022/05/31 14:20:25;;;;;;;1.98;1.00;;;;;;;;;;5055004;28;20031;-67
2022/05/31 14:22:52;;;;;;;2.80;0.88;;;;;;;;;;5054540;28;20107;-67
2022/05/31 14:25:23;;;;;;;3.08;1.10;;;;;;;;;;5054131;28;20474;-65
2022/05/31 14:27:50;;;;;;;2.67;1.08;;;;;;;;;;5054539;28;20037;-65
2022/05/31 14:30:34;;;;;;;4.65;1.13;;;;;;;;;;5054335;28;20061;-65
2022/05/31 14:33:06;;;;;;;2.97;1.08;;;;;;;;;;5045885;28;20028;-64
2022/05/31 14:35:37;;;;;;;2.58;1.17;;;;;;;;;;5075049;28;20098;-66
2022/05/31 14:38:05;;;;;;;5.03;1.20;;;;;;;;;;5073924;28;20032;-68
2022/05/31 14:40:39;;;;;;;3.70;1.60;;;;;;;;;;5074215;28;20087;-66
2022/05/31 14:43:25;;;;;;;3.33;1.30;;;;;;;;;;5073175;28;20052;-66
2022/05/31 14:45:51;;;;;;;2.08;1.10;;;;;;;;;;5057771;28;20029;-66
2022/05/31 14:48:47;;;;;;;2.00;0.82;;;;;;;;;;5045422;28;20018;-67
2022/05/31 14:51:30;;;;;;;1.80;0.80;;;;;;;;;;5033976;28;20033;-65
2022/05/31 14:53:56;;;;;;;2.35;0.90;;;;;;;;;;5034895;28;20380;-67
2022/05/31 14:56:38;;;;;;;3.97;1.40;;;;;;;;;;5034410;28;20029;-66
2022/05/31 14:59:21;;;;;;;4.20;1.13;;;;;;;;;;5034480;28;20029;-65
2022/05/31 15:01:51;;;;;;;3.40;1.15;;;;;;;;;;5044333;28;20033;-66
2022/05/31 15:04:23;;;;;;;4.57;1.35;;;;;;;;;;5054451;28;20035;-64
2022/05/31 15:07:21;;;;;;;4.70;1.10;;;;;;;;;;5054604;28;20033;-67
2022/05/31 15:09:48;;;;;;;2.10;1.00;;;;;;;;;;5050050;28;20033;-65
2022/05/31 15:20:40;;;;;;;1.83;0.90;;;;;;;;;;5034303;28;20512;-67
2022/05/31 15:23:09;;;;;;;5.93;1.00;;;;;;;;;;5045162;28;20052;-66
2022/05/31 15:25:35;;;;;;;1.45;0.90;;;;;;;;;;5036756;28;20395;-66
2022/05/31 15:28:01;;;;;;;2.00;1.02;;;;;;;;;;5053583;28;20032;-67
2022/05/31 15:30:27;;;;;;;3.38;1.00;;;;;;;;;;5053693;28;20025;-66
2022/05/31 15:32:53;;;;;;;6.10;2.92;;;;;;;;;;5053709;28;20532;-68
2022/05/31 15:35:19;;;;;;;2.33;1.00;;;;;;;;;;5053880;28;20033;-67
2022/05/31 15:37:47;;;;;;;4.38;1.15;;;;;;;;;;5053815;28;20376;-66
2022/05/31 15:40:15;;;;;;;4.97;1.20;;;;;;;;;;5053934;28;20052;-66
2022/05/31 15:42:41;;;;;;;3.05;1.00;;;;;;;;;;5053566;28;20029;-67
2022/05/31 15:45:09;;;;;;;4.93;1.10;;;;;;;;;;5053126;28;20052;-66
2022/05/31 15:47:35;;;;;;;1.95;1.20;;;;;;;;;;5054490;28;20475;-67
2022/05/31 15:50:00;;;;;;;1.92;0.90;;;;;;;;;;5053420;28;20059;-67
2022/05/31 15:52:30;;;;;;;5.38;1.33;;;;;;;;;;5053458;28;20435;-65
2022/05/31 15:54:59;;;;;;;6.65;1.20;;;;;;;;;;5053313;28;20055;-66
2022/05/31 15:57:28;;;;;;;3.65;1.30;;;;;;;;;;5060802;28;20029;-65
2022/05/31 15:59:53;;;;;;;1.95;0.98;;;;;;;;;;5040814;28;20024;-66